Airfield :
LOGIN :

Register | Disclaimer

   EN    FR    IT 

 










Legend :    VFR   Marginal VFR   IFR   Intensive IFR   Very Intensive IFR
Visi :
Ceiling :
>= 8 km
>= 3000ft
5 to 8 km
1000 to 3000 ft
1500m to 5 km
500 to 1000 ft
800 to 1500m
200 to 500 ft
< 800m
< 200 ft
Symbols :   Thunderstorms  Fog  Heavy snow  Heavy precipitations  Wind > 20 kt
SIGMETs :     Misc.  Thunderstorms  Icing  Turbulence  Mountain Waves  Volcanic Ashes






- Airport Elevation : 374 ft
- IATA code : LIS


LPPT - Lisboa Portela

CURRENT METAR :
  • 231400Z 34009KT 290V040 CAVOK 23/08 Q1016

EXPIRED METARs :
  • 231330Z VRB07KT CAVOK 23/08 Q1017
  • 231300Z 36010KT 290V060 CAVOK 23/07 Q1017
  • 231230Z 35010KT CAVOK 22/06 Q1017
  • 231200Z 01011KT 320V050 CAVOK 22/07 Q1017
  • 231130Z 36009KT 330V030 CAVOK 22/07 Q1018
  • 231100Z 03009KT 360V070 CAVOK 21/08 Q1018
  • 231030Z 01009KT 310V040 CAVOK 21/08 Q1018
  • 231000Z 01008KT 330V040 9999 FEW025 19/09 Q1018

TAF TAF LPPT
Valid from the 23 at 12:00 until the 24 at 18:00 UTC


231100Z 2312/2418 03007KT CAVOK
BECMG 2313/2315 32015KT
BECMG 2321/2324 35007KT 9999 SCT012
BECMG 2407/2409 VRB02KT CAVOK
BECMG 2413/2416 31012KT



MET'MAP, your aeronautical weather chart ! - Copyright ORBIFLY December 2007 - Disclaimer

ORBIFLY MET'MAP TEAM :

Programming & Development : Alexandra Zaïnal
Original concept : Baudouin d'Aumeries
Technical & hardware support : Manuel Goepfert
Assistance : Marc-Olivier Méhu




SOURCES & CREDITS :

   NOAA